Time;durP1;ratioP1;P1;durP2;ratioP2;P2;SDS_P1;SDS_P2;PMS_P1;PMS_P2;Temp;Humidity;BMP_temperature;BMP_pressure;BME280_temperature;BME280_humidity;BME280_pressure;Samples;Min_cycle;Max_cycle;Signal;HPM_P1;HPM_P2
2023/01/07 00:01:11;;;;;;;7.85;2.88;;;;;;;-7.42;84.37;102327.13;10515596;28;20151;-78
2023/01/07 00:06:22;;;;;;;6.63;3.22;;;;;;;-7.38;84.46;102325.91;10507953;28;20055;-82
2023/01/07 00:11:26;;;;;;;6.80;2.60;;;;;;;-7.38;83.97;102333.91;10523354;28;20043;-81
2023/01/07 00:16:30;;;;;;;4.70;2.70;;;;;;;-7.38;83.70;102332.09;10492266;28;20036;-82
2023/01/07 00:21:33;;;;;;;6.50;2.90;;;;;;;-7.41;83.74;102328.81;10504497;28;20040;-81
2023/01/07 00:26:36;;;;;;;5.05;2.65;;;;;;;-7.39;83.68;102330.41;10529253;28;20047;-83
2023/01/07 00:31:39;;;;;;;5.60;3.00;;;;;;;-7.42;83.59;102325.31;10482427;28;20061;-82
2023/01/07 00:36:46;;;;;;;5.00;2.70;;;;;;;-7.43;83.81;102330.78;10510984;28;20510;-83
2023/01/07 00:47:09;;;;;;;5.45;3.00;;;;;;;-7.43;83.68;102336.09;10515792;28;20039;-82
2023/01/07 00:52:11;;;;;;;4.07;2.33;;;;;;;-7.49;83.59;102325.91;10529984;28;20032;-79
2023/01/07 00:57:14;;;;;;;6.40;2.90;;;;;;;-7.52;83.71;102328.81;10525123;28;20502;-79
2023/01/07 01:02:16;;;;;;;5.00;2.53;;;;;;;-7.48;84.03;102335.59;10475678;28;20033;-78
2023/01/07 01:07:18;;;;;;;4.10;2.53;;;;;;;-7.53;84.29;102335.13;10493214;28;20266;-78
2023/01/07 01:12:21;;;;;;;5.68;2.90;;;;;;;-7.60;84.50;102338.28;10501655;28;20071;-79
2023/01/07 01:17:23;;;;;;;5.75;2.92;;;;;;;-7.54;84.05;102339.59;10509966;28;20044;-78
2023/01/07 01:22:26;;;;;;;6.88;3.10;;;;;;;-7.50;84.04;102348.19;10482149;28;20051;-78
2023/01/07 01:27:30;;;;;;;4.47;2.55;;;;;;;-7.56;84.68;102351.38;10489517;28;20048;-78
2023/01/07 01:32:32;;;;;;;4.82;2.75;;;;;;;-7.61;84.19;102351.75;10480927;28;20060;-79
2023/01/07 01:37:34;;;;;;;4.55;2.78;;;;;;;-7.64;84.05;102343.97;10493164;28;20078;-78
2023/01/07 01:42:37;;;;;;;4.47;2.53;;;;;;;-7.63;84.46;102343.88;10512335;28;20063;-78
2023/01/07 01:47:46;;;;;;;4.75;2.85;;;;;;;-7.63;84.40;102341.19;10476698;28;20032;-75
2023/01/07 01:53:03;;;;;;;6.50;3.35;;;;;;;-7.53;85.03;102340.47;10506515;28;20044;-76
2023/01/07 01:58:12;;;;;;;8.23;3.70;;;;;;;-7.50;85.06;102333.06;10489385;28;20047;-76
2023/01/07 02:03:17;;;;;;;7.57;4.53;;;;;;;-7.56;84.38;102327.38;10488423;28;20064;-78
2023/01/07 02:08:22;;;;;;;6.22;3.50;;;;;;;-7.54;85.25;102323.63;10474794;28;20483;-78
2023/01/07 02:13:38;;;;;;;7.70;3.70;;;;;;;-7.50;85.03;102317.06;10487047;28;20036;-79
2023/01/07 02:19:05;;;;;;;5.80;3.78;;;;;;;-7.48;85.25;102322.28;10501904;28;20055;-78
2023/01/07 02:24:22;;;;;;;9.65;4.78;;;;;;;-7.47;85.45;102332.81;10506765;28;20060;-77
2023/01/07 02:29:49;;;;;;;16.13;6.68;;;;;;;-7.50;84.95;102326.88;10467959;28;20036;-77
2023/01/07 02:35:26;;;;;;;15.90;7.07;;;;;;;-7.50;84.78;102332.22;10495224;28;20056;-79
2023/01/07 02:40:31;;;;;;;17.33;8.20;;;;;;;-7.49;84.97;102324.09;10507153;28;20055;-78
2023/01/07 02:46:12;;;;;;;15.60;7.97;;;;;;;-7.45;84.93;102330.91;10472710;28;20048;-75
2023/01/07 02:51:14;;;;;;;13.60;7.18;;;;;;;-7.45;85.37;102322.06;10392263;28;20064;-76
2023/01/07 02:56:27;;;;;;;12.90;5.80;;;;;;;-7.50;85.61;102338.38;10484105;28;20040;-76
2023/01/07 03:01:56;;;;;;;10.52;5.65;;;;;;;-7.53;85.43;102337.78;10479228;28;20426;-74
2023/01/07 03:07:24;;;;;;;10.05;5.68;;;;;;;-7.55;85.42;102345.91;10504416;28;20048;-75
2023/01/07 03:12:38;;;;;;;11.05;5.38;;;;;;;-7.52;85.46;102331.50;10522624;28;20048;-76
2023/01/07 03:18:02;;;;;;;10.77;5.68;;;;;;;-7.48;85.71;102335.59;10481116;28;20060;-75
2023/01/07 03:23:07;;;;;;;14.35;6.53;;;;;;;-7.44;85.58;102337.06;10475210;28;20036;-76
2023/01/07 03:28:11;;;;;;;11.32;6.00;;;;;;;-7.41;85.31;102336.81;10490008;28;20044;-78
2023/01/07 03:33:46;;;;;;;11.35;5.72;;;;;;;-7.43;85.31;102339.63;10507512;28;20055;-82
2023/01/07 03:38:53;;;;;;;10.40;5.93;;;;;;;-7.48;85.21;102352.44;10497728;28;20049;-83
2023/01/07 03:43:57;;;;;;;6.13;4.50;;;;;;;-7.55;85.63;102363.72;10483529;28;20036;-83
2023/01/07 03:49:00;;;;;;;7.75;4.80;;;;;;;-7.50;85.28;102358.88;10496343;28;20419;-84
2023/01/07 03:54:03;;;;;;;8.35;4.22;;;;;;;-7.46;85.03;102355.88;10501107;28;20041;-83
2023/01/07 03:59:06;;;;;;;6.28;3.92;;;;;;;-7.46;84.83;102360.31;10492681;28;20514;-82
2023/01/07 04:04:08;;;;;;;9.52;4.65;;;;;;;-7.52;84.93;102366.16;10498292;28;20487;-83
2023/01/07 04:09:17;;;;;;;9.00;4.30;;;;;;;-7.55;85.04;102364.56;10485953;28;20044;-83
2023/01/07 04:14:24;;;;;;;;;;;;;;;-7.54;84.71;102368.94;10513101;28;20037;-81
2023/01/07 04:19:26;;;;;;;9.52;5.63;;;;;;;-7.55;85.30;102366.38;10505068;28;19927;-82
2023/01/07 04:24:28;;;;;;;7.68;5.22;;;;;;;-7.56;84.80;102370.03;10488229;28;20041;-82
2023/01/07 04:29:31;;;;;;;7.93;4.90;;;;;;;-7.60;84.69;102374.75;10522031;28;20044;-82
2023/01/07 04:34:34;;;;;;;8.80;4.85;;;;;;;-7.59;84.37;102379.13;10501873;28;20317;-83
2023/01/07 04:39:42;;;;;;;8.90;4.45;;;;;;;-7.56;84.75;102386.03;10499428;28;20048;-84
2023/01/07 04:44:44;;;;;;;8.63;4.20;;;;;;;-7.55;84.26;102377.06;10519893;28;20048;-83
2023/01/07 04:49:47;;;;;;;5.13;3.30;;;;;;;-7.58;84.37;102383.47;10508447;28;20033;-82
2023/01/07 04:54:54;;;;;;;5.13;3.55;;;;;;;-7.67;84.65;102379.69;10491694;28;20041;-82
2023/01/07 04:59:56;;;;;;;8.60;4.28;;;;;;;-7.61;84.60;102384.56;10490626;28;20036;-81
2023/01/07 05:04:59;;;;;;;7.43;3.70;;;;;;;-7.57;84.35;102381.66;10503956;28;20040;-83
2023/01/07 05:10:02;;;;;;;7.93;3.35;;;;;;;-7.54;84.17;102387.59;10522247;28;20530;-81
2023/01/07 05:15:08;;;;;;;6.32;3.03;;;;;;;-7.49;83.77;102388.06;10523246;28;20515;-82
2023/01/07 05:20:14;;;;;;;7.38;3.38;;;;;;;-7.50;84.20;102382.88;10496605;28;20041;-81
2023/01/07 05:25:16;;;;;;;5.75;2.83;;;;;;;-7.43;84.27;102386.75;10461898;28;20045;-82
2023/01/07 05:30:19;;;;;;;6.63;3.45;;;;;;;-7.46;83.99;102389.66;10481812;28;20048;-85
2023/01/07 05:35:21;;;;;;;7.40;3.28;;;;;;;-7.56;84.09;102392.19;10503859;28;20041;-82
2023/01/07 05:40:24;;;;;;;3.40;2.50;;;;;;;-7.55;83.64;102390.38;10488201;28;20040;-81
2023/01/07 05:45:26;;;;;;;3.80;2.10;;;;;;;-7.57;84.52;102395.00;10496172;28;20041;-80
2023/01/07 05:50:28;;;;;;;5.32;2.50;;;;;;;-7.57;83.73;102384.31;10486190;28;20326;-80
2023/01/07 05:55:31;;;;;;;8.20;3.03;;;;;;;-7.68;84.25;102379.81;10485901;28;20052;-79
2023/01/07 06:00:33;;;;;;;3.67;2.17;;;;;;;-7.71;84.14;102385.41;10477878;28;20073;-80
2023/01/07 06:05:36;;;;;;;4.82;2.55;;;;;;;-7.79;84.15;102380.69;10492029;28;20040;-80
2023/01/07 06:10:38;;;;;;;3.38;2.10;;;;;;;-7.76;84.88;102383.09;10486408;28;20157;-79
2023/01/07 06:15:40;;;;;;;4.63;2.63;;;;;;;-7.73;84.71;102393.50;10497105;28;20048;-79
2023/01/07 06:20:42;;;;;;;4.28;2.60;;;;;;;-7.68;84.91;102388.66;10501245;28;20040;-80
2023/01/07 06:25:44;;;;;;;6.43;2.70;;;;;;;-7.65;84.80;102396.41;10500350;28;20049;-80
2023/01/07 06:30:47;;;;;;;4.90;2.85;;;;;;;-7.65;84.71;102404.41;10493662;28;20047;-80
2023/01/07 06:35:50;;;;;;;9.13;3.53;;;;;;;-7.65;84.31;102407.06;10495656;28;20408;-83
2023/01/07 06:40:52;;;;;;;5.22;2.67;;;;;;;-7.67;84.20;102405.50;10520021;28;20084;-85
2023/01/07 06:45:55;;;;;;;5.40;3.00;;;;;;;-7.66;84.71;102410.72;10498012;28;20068;-85
2023/01/07 06:50:57;;;;;;;5.80;2.45;;;;;;;-7.74;84.86;102412.28;10525195;28;20029;-84
2023/01/07 06:55:59;;;;;;;5.47;2.75;;;;;;;-7.69;84.17;102407.44;10530257;28;20048;-85
2023/01/07 07:01:10;;;;;;;5.38;2.80;;;;;;;-7.65;85.02;102408.91;10528185;28;20052;-85
2023/01/07 07:06:12;;;;;;;4.53;2.33;;;;;;;-7.67;84.75;102417.00;10524849;28;20032;-84
2023/01/07 07:11:14;;;;;;;5.68;2.70;;;;;;;-7.67;85.20;102421.50;10525167;28;20420;-83
2023/01/07 07:16:16;;;;;;;4.95;3.00;;;;;;;-7.65;84.89;102431.06;10522790;28;20029;-84
2023/01/07 07:21:19;;;;;;;8.20;3.03;;;;;;;-7.68;84.68;102433.13;10519983;28;20067;-84
2023/01/07 07:26:21;;;;;;;6.05;2.70;;;;;;;-7.78;84.73;102434.81;10481280;28;20139;-83
2023/01/07 07:31:23;;;;;;;6.32;3.00;;;;;;;-7.79;84.67;102439.31;10508502;28;20415;-83
2023/01/07 07:36:25;;;;;;;7.13;2.95;;;;;;;-7.85;84.89;102446.91;10511074;28;20033;-85
2023/01/07 07:41:29;;;;;;;4.28;2.50;;;;;;;-7.81;84.80;102445.69;10527075;28;20063;-84
2023/01/07 07:46:33;;;;;;;3.42;2.20;;;;;;;-7.80;85.11;102450.94;10487272;28;20047;-84
2023/01/07 07:51:36;;;;;;;5.55;2.42;;;;;;;-7.66;84.84;102458.69;10524720;28;20082;-85
2023/01/07 07:56:38;;;;;;;4.35;2.85;;;;;;;-7.61;84.96;102453.88;10509347;28;20040;-83
2023/01/07 08:01:40;;;;;;;5.10;2.53;;;;;;;-7.63;84.44;102458.47;10527628;28;20047;-84
2023/01/07 08:06:42;;;;;;;4.35;2.60;;;;;;;-7.55;84.77;102457.88;10520802;28;20422;-83
2023/01/07 08:11:44;;;;;;;4.43;2.83;;;;;;;-7.50;84.22;102470.84;10494455;28;20040;-85
2023/01/07 08:16:47;;;;;;;5.50;2.80;;;;;;;-7.52;84.39;102472.78;10526120;28;20053;-85
2023/01/07 08:21:50;;;;;;;4.07;2.83;;;;;;;-7.48;84.11;102471.56;10525487;28;20052;-85
2023/01/07 08:26:54;;;;;;;7.93;3.03;;;;;;;-7.49;83.88;102476.06;10520896;28;20045;-85
2023/01/07 08:31:56;;;;;;;5.82;2.15;;;;;;;-7.48;82.62;102479.56;10508215;28;20074;-85
2023/01/07 08:36:58;;;;;;;4.05;2.40;;;;;;;-7.63;82.15;102482.47;10506478;28;20052;-84
2023/01/07 08:42:00;;;;;;;4.55;2.30;;;;;;;-7.69;81.17;102479.41;10503721;28;20040;-84
2023/01/07 08:47:03;;;;;;;5.20;2.88;;;;;;;-7.74;80.89;102485.09;10505131;28;20349;-84
2023/01/07 08:52:05;;;;;;;3.33;2.00;;;;;;;-7.60;80.13;102492.88;10510089;28;20507;-84
2023/01/07 08:57:07;;;;;;;5.00;2.58;;;;;;;-7.50;79.40;102482.34;10506068;28;20411;-84
2023/01/07 09:02:13;;;;;;;3.10;1.95;;;;;;;-7.49;78.45;102485.88;10523518;28;20033;-85
2023/01/07 09:07:15;;;;;;;3.80;1.67;;;;;;;-7.56;77.01;102492.66;10468591;28;20051;-83
2023/01/07 09:12:17;;;;;;;3.75;1.42;;;;;;;-7.61;75.64;102491.19;10517437;28;20067;-83
2023/01/07 09:17:20;;;;;;;5.05;1.80;;;;;;;-7.63;75.90;102495.78;10510005;28;20044;-83
2023/01/07 09:22:22;;;;;;;4.55;2.13;;;;;;;-7.49;75.49;102488.53;10508120;28;20041;-83
2023/01/07 09:27:25;;;;;;;4.28;1.88;;;;;;;-7.50;75.04;102498.34;10523023;28;20052;-83
2023/01/07 09:32:27;;;;;;;3.33;1.75;;;;;;;-7.37;75.01;102500.94;10508131;28;20419;-83
2023/01/07 09:37:30;;;;;;;3.47;1.55;;;;;;;-7.29;75.24;102511.84;10525077;28;20045;-82
2023/01/07 09:42:41;;;;;;;3.80;1.70;;;;;;;-7.32;74.89;102517.41;10525302;28;20051;-83
2023/01/07 09:47:47;;;;;;;4.15;2.25;;;;;;;-7.31;74.76;102525.28;10527859;28;20040;-83
2023/01/07 09:52:51;;;;;;;4.68;2.65;;;;;;;-7.25;74.81;102517.81;10524708;28;20045;-83
2023/01/07 09:57:53;;;;;;;10.02;3.10;;;;;;;-7.27;75.79;102517.94;10511326;28;20556;-84
2023/01/07 10:03:34;;;;;;;7.03;3.10;;;;;;;-7.35;75.11;102514.97;10501402;28;20407;-83
2023/01/07 10:09:07;;;;;;;6.65;3.10;;;;;;;-7.50;75.84;102527.66;10464949;28;20056;-84
2023/01/07 10:14:28;;;;;;;5.03;2.55;;;;;;;-7.50;76.36;102526.81;10515584;28;20033;-83
2023/01/07 10:20:11;;;;;;;5.30;2.60;;;;;;;-7.38;75.64;102533.91;10524437;28;20055;-83
2023/01/07 10:25:27;;;;;;;4.88;1.98;;;;;;;-7.61;74.96;102535.66;10467038;28;20052;-85
2023/01/07 10:30:33;;;;;;;2.95;1.90;;;;;;;-7.72;74.49;102535.59;10493912;28;20044;-85
2023/01/07 10:35:38;;;;;;;3.70;1.95;;;;;;;-7.74;74.60;102538.41;10507938;28;20523;-82
2023/01/07 10:40:44;;;;;;;4.07;2.15;;;;;;;-7.54;74.64;102541.38;10515722;28;20060;-84
2023/01/07 10:45:58;;;;;;;4.07;2.50;;;;;;;-7.44;74.19;102537.03;10500206;28;20094;-83
2023/01/07 10:51:23;;;;;;;3.55;1.70;;;;;;;-7.44;73.76;102537.03;10530119;28;20044;-81
2023/01/07 10:56:36;;;;;;;3.53;2.00;;;;;;;-7.51;74.20;102536.63;10497182;28;20048;-78
2023/01/07 11:01:38;;;;;;;3.85;2.30;;;;;;;-7.63;73.00;102535.78;10503831;28;20052;-76
2023/01/07 11:06:48;;;;;;;3.53;2.00;;;;;;;-7.64;73.38;102534.03;10501928;28;20540;-75
2023/01/07 11:11:50;;;;;;;3.17;1.42;;;;;;;-7.63;72.53;102532.25;10526734;28;20044;-75
2023/01/07 11:17:07;;;;;;;2.38;1.25;;;;;;;-7.68;72.77;102532.59;10513378;28;20048;-75
2023/01/07 11:22:32;;;;;;;3.17;1.45;;;;;;;-7.71;72.63;102531.97;10492871;28;20106;-76
2023/01/07 11:27:35;;;;;;;1.13;0.98;;;;;;;-7.76;72.35;102535.00;10524578;28;20071;-74
2023/01/07 11:32:39;;;;;;;1.33;0.90;;;;;;;-7.88;71.49;102530.56;10516931;28;20033;-73
2023/01/07 11:37:47;;;;;;;1.30;1.10;;;;;;;-7.93;71.83;102532.75;10512006;28;20044;-75
2023/01/07 11:42:52;;;;;;;1.08;0.98;;;;;;;-7.95;71.97;102534.69;10528216;28;20098;-77
2023/01/07 11:48:00;;;;;;;1.80;0.80;;;;;;;-7.97;71.38;102536.59;10519942;28;20506;-75
2023/01/07 11:53:12;;;;;;;2.80;1.23;;;;;;;-7.97;70.96;102536.59;10513501;28;20056;-74
2023/01/07 11:58:18;;;;;;;1.10;0.63;;;;;;;-7.99;71.13;102538.50;10506374;28;20056;-76
2023/01/07 12:03:25;;;;;;;1.38;0.65;;;;;;;-8.07;70.83;102531.09;10523085;28;20036;-80
2023/01/07 12:08:27;;;;;;;2.75;1.08;;;;;;;-8.07;71.77;102531.09;10506332;28;20041;-79
2023/01/07 12:13:34;;;;;;;1.80;0.82;;;;;;;-8.15;71.73;102533.50;10521809;28;20055;-77
2023/01/07 12:19:11;;;;;;;2.00;1.02;;;;;;;-8.12;72.52;102529.75;10511549;28;20044;-75
2023/01/07 12:24:32;;;;;;;3.08;1.17;;;;;;;-8.15;72.76;102527.31;10506608;28;20051;-77
2023/01/07 12:30:31;;;;;;;1.25;0.80;;;;;;;-8.10;71.97;102542.00;10514674;28;20045;-77
2023/01/07 12:35:42;;;;;;;1.95;1.17;;;;;;;-8.01;71.99;102541.28;10316416;28;20047;-84
2023/01/07 12:40:59;;;;;;;1.58;0.98;;;;;;;-8.03;72.02;102532.56;10499794;28;20049;-80
2023/01/07 12:46:05;;;;;;;2.25;1.10;;;;;;;-8.14;72.75;102531.69;10518735;28;20408;-79
2023/01/07 12:51:54;;;;;;;3.58;1.45;;;;;;;-8.27;72.99;102531.72;10505006;28;20487;-88
2023/01/07 12:56:59;;;;;;;2.05;1.27;;;;;;;-8.29;73.33;102534.50;10520494;28;20458;-82
2023/01/07 13:02:32;;;;;;;2.58;1.50;;;;;;;-8.34;73.70;102530.47;10503678;28;20052;-80
2023/01/07 13:07:49;;;;;;;4.30;1.80;;;;;;;-8.42;74.20;102535.53;10502108;28;20040;-78
2023/01/07 13:12:56;;;;;;;4.65;1.65;;;;;;;-8.45;73.73;102541.94;10525592;28;20059;-77
2023/01/07 13:18:17;;;;;;;3.58;1.75;;;;;;;-8.45;74.47;102539.28;10523539;28;20050;-78
2023/01/07 13:23:21;;;;;;;5.78;2.65;;;;;;;-8.51;73.74;102527.22;10527729;28;20040;-76
2023/01/07 13:29:01;;;;;;;5.63;2.42;;;;;;;-8.66;73.82;102527.50;10527466;28;20255;-79
2023/01/07 13:34:28;;;;;;;6.35;2.13;;;;;;;-8.79;74.35;102521.38;10527525;28;20067;-78
2023/01/07 13:39:44;;;;;;;5.00;2.55;;;;;;;-8.79;74.37;102524.88;10527265;28;20048;-78
2023/01/07 13:45:05;;;;;;;4.93;2.35;;;;;;;-8.89;73.85;102524.66;10489960;28;20534;-77
2023/01/07 13:50:17;;;;;;;3.83;2.00;;;;;;;-8.96;73.54;102530.53;10508223;28;20049;-77
2023/01/07 13:55:33;;;;;;;2.33;1.60;;;;;;;-9.06;72.64;102530.31;10474397;28;20028;-77
2023/01/07 14:00:38;;;;;;;2.78;1.77;;;;;;;-9.13;72.36;102532.56;10519047;28;20079;-75
2023/01/07 14:05:41;;;;;;;2.22;1.20;;;;;;;-9.23;71.79;102530.63;10524930;28;20032;-76
2023/01/07 14:10:50;;;;;;;5.32;1.40;;;;;;;-9.28;71.77;102535.44;10504780;28;20040;-77
2023/01/07 14:16:20;;;;;;;4.93;1.50;;;;;;;-9.36;71.54;102524.50;10500085;28;20569;-77
2023/01/07 14:21:35;;;;;;;2.03;1.23;;;;;;;-9.43;71.70;102530.22;10507757;28;20044;-76
2023/01/07 14:26:50;;;;;;;6.43;1.20;;;;;;;-9.49;71.10;102527.97;10489311;28;20056;-77
2023/01/07 14:32:29;;;;;;;3.22;1.52;;;;;;;-9.51;71.17;102513.09;10516930;28;20056;-76
2023/01/07 14:37:33;;;;;;;2.60;1.10;;;;;;;-9.52;70.98;102509.59;10517444;28;20056;-79
2023/01/07 14:42:43;;;;;;;4.40;1.52;;;;;;;-9.53;70.37;102496.41;10490493;28;20041;-76
2023/01/07 14:47:54;;;;;;;1.02;0.82;;;;;;;-9.60;70.63;102511.06;10521456;28;20040;-76
2023/01/07 14:53:15;;;;;;;3.50;1.20;;;;;;;-9.63;70.62;102508.63;10523591;28;20533;-77
2023/01/07 14:58:26;;;;;;;4.22;1.60;;;;;;;-9.67;70.52;102513.28;10532930;28;20430;-76
2023/01/07 15:04:05;;;;;;;3.17;0.90;;;;;;;-9.74;70.24;102512.84;10524302;28;20427;-73
2023/01/07 15:20:10;;;;;;;2.53;1.33;;;;;;;-9.90;70.30;102509.50;10499957;28;20050;-78
2023/01/07 15:25:22;;;;;;;5.65;1.95;;;;;;;-9.92;70.36;102507.91;10515777;28;20406;-78
2023/01/07 15:30:47;;;;;;;3.72;1.75;;;;;;;-9.95;70.72;102506.31;10522918;28;20044;-75
2023/01/07 15:35:50;;;;;;;3.40;1.10;;;;;;;-9.95;70.49;102500.16;10487665;28;20045;-76
2023/01/07 15:40:53;;;;;;;3.17;1.80;;;;;;;-9.98;70.14;102497.72;10500171;28;20044;-76
2023/01/07 15:46:06;;;;;;;3.80;1.80;;;;;;;-10.02;70.52;102504.19;10487643;28;20037;-74
2023/01/07 15:51:16;;;;;;;2.00;1.35;;;;;;;-10.07;69.90;102505.31;10500064;28;20060;-78
2023/01/07 15:56:19;;;;;;;2.17;1.23;;;;;;;-10.10;70.55;102494.91;10511000;28;20045;-76
2023/01/07 16:01:23;;;;;;;3.08;1.58;;;;;;;-10.09;71.09;102480.69;10507242;28;20041;-74
2023/01/07 16:06:31;;;;;;;4.60;1.50;;;;;;;-10.16;70.75;102479.41;10504430;28;20045;-74
2023/01/07 16:11:33;;;;;;;2.28;1.20;;;;;;;-10.18;70.53;102493.72;10517477;28;20430;-74
2023/01/07 16:16:35;;;;;;;2.45;1.30;;;;;;;-10.18;70.46;102494.56;10502314;28;20419;-75
2023/01/07 16:21:48;;;;;;;4.65;1.52;;;;;;;-10.21;71.12;102494.81;10527177;28;20044;-78
2023/01/07 16:26:53;;;;;;;1.63;1.40;;;;;;;-10.22;71.77;102501.09;10501411;28;20052;-81
2023/01/07 16:31:57;;;;;;;3.80;1.67;;;;;;;-10.22;71.52;102495.78;10504363;28;20036;-79
2023/01/07 16:36:59;;;;;;;5.57;1.85;;;;;;;-10.22;71.08;102493.13;10521664;28;20048;-79
2023/01/07 16:42:22;;;;;;;6.13;1.95;;;;;;;-10.22;71.88;102485.16;10504071;28;20044;-85
2023/01/07 16:47:29;;;;;;;10.40;2.35;;;;;;;-10.24;72.03;102497.66;10519449;28;20438;-78
2023/01/07 16:52:32;;;;;;;4.82;1.98;;;;;;;-10.25;72.11;102490.63;10468655;28;20037;-80
2023/01/07 16:57:40;;;;;;;4.95;2.15;;;;;;;-10.29;72.08;102499.75;10477213;28;20055;-81
2023/01/07 17:02:47;;;;;;;;;;;;;;;-10.32;72.32;102504.41;10494234;28;20055;-81
2023/01/07 17:07:54;;;;;;;8.05;3.50;;;;;;;-10.39;72.77;102496.03;10520849;28;19920;-80
2023/01/07 17:13:02;;;;;;;4.38;2.60;;;;;;;-10.46;72.95;102494.69;10514334;28;20052;-78
2023/01/07 17:18:10;;;;;;;6.20;2.55;;;;;;;-10.51;72.71;102491.50;10508739;28;20507;-79
2023/01/07 17:23:25;;;;;;;5.18;2.55;;;;;;;-10.54;72.84;102489.91;10520435;28;20411;-92
2023/01/07 17:28:29;;;;;;;6.43;2.30;;;;;;;-10.56;72.00;102494.47;10516014;28;20062;-73
2023/01/07 17:33:31;;;;;;;4.63;2.40;;;;;;;-10.61;71.85;102487.72;10497276;28;20439;-74
2023/01/07 17:38:34;;;;;;;3.35;2.30;;;;;;;-10.68;72.57;102490.78;10498131;28;20051;-73
2023/01/07 17:43:36;;;;;;;3.22;2.25;;;;;;;-10.73;72.49;102474.31;10519360;28;20048;-74
2023/01/07 17:48:38;;;;;;;3.65;2.45;;;;;;;-10.75;71.88;102476.22;10527420;28;20487;-74
2023/01/07 17:53:46;;;;;;;3.60;2.03;;;;;;;-10.79;72.05;102474.69;10510368;28;20044;-74
2023/01/07 17:58:48;;;;;;;7.95;3.00;;;;;;;-10.84;72.17;102479.44;10480874;28;20384;-77
2023/01/07 18:03:51;;;;;;;4.43;2.45;;;;;;;-10.89;71.78;102473.59;10529137;28;20582;-77
2023/01/07 18:08:55;;;;;;;3.13;2.10;;;;;;;-10.97;72.14;102470.56;10507643;28;20040;-74
2023/01/07 18:13:57;;;;;;;3.80;2.20;;;;;;;-11.07;71.68;102474.75;10508227;28;21766;-75
2023/01/07 18:19:00;;;;;;;4.05;2.22;;;;;;;-11.14;71.55;102476.06;10527446;28;20053;-74
2023/01/07 18:24:02;;;;;;;3.45;1.92;;;;;;;-11.18;71.54;102488.66;10530268;28;20037;-74
2023/01/07 18:29:05;;;;;;;2.42;1.48;;;;;;;-11.24;72.21;102481.09;10536633;28;20411;-74
2023/01/07 18:34:08;;;;;;;6.35;1.90;;;;;;;-11.28;72.18;102472.50;10524752;28;20410;-74
2023/01/07 18:39:15;;;;;;;3.90;1.83;;;;;;;-11.36;71.78;102476.56;10524937;28;20455;-78
2023/01/07 18:44:18;;;;;;;3.00;2.00;;;;;;;-11.41;71.32;102479.50;10507386;28;20048;-76
2023/01/07 18:49:20;;;;;;;1.73;1.40;;;;;;;-11.44;71.83;102482.34;10461502;28;20418;-73
2023/01/07 18:54:23;;;;;;;2.47;1.27;;;;;;;-11.47;71.59;102481.66;10455082;28;20052;-72
2023/01/07 18:59:25;;;;;;;2.42;1.60;;;;;;;-11.49;71.69;102475.59;10443185;28;20451;-74
2023/01/07 19:04:36;;;;;;;2.92;1.70;;;;;;;-11.52;71.33;102468.69;10427479;28;20049;-74
2023/01/07 19:09:38;;;;;;;1.25;1.15;;;;;;;-11.58;71.46;102469.06;10440585;28;20033;-74
2023/01/07 19:14:40;;;;;;;2.15;1.52;;;;;;;-11.56;71.53;102475.13;10443796;28;20046;-74
2023/01/07 19:19:42;;;;;;;3.85;1.98;;;;;;;-11.58;71.69;102477.03;10446003;28;20054;-75
2023/01/07 19:25:10;;;;;;;4.63;2.50;;;;;;;-11.60;72.09;102486.84;10426301;28;20041;-74
2023/01/07 19:30:12;;;;;;;3.40;2.25;;;;;;;-11.60;72.01;102489.50;10452389;28;20041;-77
2023/01/07 19:35:14;;;;;;;5.53;2.63;;;;;;;-11.67;71.48;102490.78;10443610;28;20068;-76
2023/01/07 19:40:17;;;;;;;7.40;3.72;;;;;;;-11.79;71.25;102499.53;10429209;28;20056;-75
2023/01/07 19:45:19;;;;;;;5.57;2.83;;;;;;;-11.93;71.00;102489.75;10419892;28;20831;-75
2023/01/07 19:50:21;;;;;;;7.18;3.33;;;;;;;-11.97;71.28;102502.31;10418202;28;20505;-75
2023/01/07 19:55:24;;;;;;;6.18;3.50;;;;;;;-12.02;71.21;102504.34;10448098;28;20531;-76
2023/01/07 20:00:26;;;;;;;5.30;3.30;;;;;;;-12.01;71.68;102508.72;10444798;28;20057;-76
2023/01/07 20:05:28;;;;;;;6.45;3.20;;;;;;;-12.04;71.70;102505.38;10435550;28;20956;-77
2023/01/07 20:10:31;;;;;;;8.90;4.32;;;;;;;-12.14;71.18;102496.31;10440752;28;20042;-76
2023/01/07 20:15:33;;;;;;;7.25;3.78;;;;;;;-12.32;70.86;102501.72;10421632;28;20049;-74
2023/01/07 20:20:35;;;;;;;6.45;3.42;;;;;;;-12.36;71.09;102497.50;10430848;28;20054;-75
2023/01/07 20:25:41;;;;;;;7.78;3.90;;;;;;;-12.42;71.53;102492.59;10430700;28;20037;-76
2023/01/07 20:30:44;;;;;;;6.38;3.70;;;;;;;-12.58;71.17;102483.81;10404192;28;20053;-75
2023/01/07 20:35:46;;;;;;;6.20;3.70;;;;;;;-12.61;71.92;102479.56;10410465;28;20041;-76
2023/01/07 20:40:48;;;;;;;7.20;3.83;;;;;;;-12.61;72.33;102494.56;10418500;28;20050;-75
2023/01/07 20:45:51;;;;;;;9.65;3.85;;;;;;;-12.69;71.77;102497.63;10450728;28;20042;-75
2023/01/07 20:50:54;;;;;;;8.27;3.88;;;;;;;-12.77;72.58;102506.94;10450592;28;20057;-75
2023/01/07 20:56:01;;;;;;;9.50;4.35;;;;;;;-12.81;72.90;102511.53;10430158;28;20053;-78
2023/01/07 21:01:08;;;;;;;9.45;4.28;;;;;;;-12.89;72.84;102519.00;10440441;28;20740;-78
2023/01/07 21:06:12;;;;;;;9.07;4.60;;;;;;;-12.97;73.29;102518.59;10436990;28;20048;-78
2023/01/07 21:11:18;;;;;;;7.45;4.13;;;;;;;-13.07;73.09;102538.50;10422893;28;20095;-76
2023/01/07 21:16:21;;;;;;;7.43;3.58;;;;;;;-13.13;73.87;102539.69;10456386;28;20467;-84
2023/01/07 21:21:24;;;;;;;8.23;3.67;;;;;;;-13.15;74.62;102536.28;10460470;28;20103;-76
2023/01/07 21:26:30;;;;;;;7.72;3.83;;;;;;;-13.20;73.87;102531.25;10442258;28;20404;-76
2023/01/07 21:31:32;;;;;;;6.05;3.33;;;;;;;-13.20;74.47;102520.69;10429693;28;20037;-78
2023/01/07 21:36:39;;;;;;;8.95;4.95;;;;;;;-13.32;74.45;102521.34;10441075;28;20512;-73
2023/01/07 21:41:41;;;;;;;13.23;6.65;;;;;;;-13.45;75.46;102509.72;10409234;28;20053;-75
2023/01/07 21:46:44;;;;;;;12.32;5.40;;;;;;;-13.55;75.24;102513.78;10405459;28;20048;-76
2023/01/07 21:51:50;;;;;;;11.82;5.78;;;;;;;-13.63;75.51;102510.69;10443635;28;20056;-76
2023/01/07 21:56:52;;;;;;;11.43;5.60;;;;;;;-13.69;75.58;102496.03;10444480;28;20041;-77
2023/01/07 22:01:54;;;;;;;9.77;5.50;;;;;;;-13.75;76.04;102501.59;10444417;28;20046;-76
2023/01/07 22:06:57;;;;;;;9.13;5.72;;;;;;;-13.86;76.18;102496.91;10414701;28;20512;-76
2023/01/07 22:11:59;;;;;;;12.52;6.38;;;;;;;-13.95;75.87;102494.72;10461211;28;20060;-78
2023/01/07 22:17:02;;;;;;;12.10;5.65;;;;;;;-14.06;75.49;102487.31;10445187;28;20132;-82
2023/01/07 22:22:09;;;;;;;10.55;6.00;;;;;;;-14.14;76.12;102504.47;10444185;28;20037;-79
2023/01/07 22:27:11;;;;;;;10.02;4.90;;;;;;;-14.22;75.75;102507.50;10426971;28;20041;-78
2023/01/07 22:32:18;;;;;;;8.70;5.40;;;;;;;-14.31;75.64;102511.44;10424797;28;20046;-80
2023/01/07 22:37:22;;;;;;;10.38;5.38;;;;;;;-14.29;75.17;102506.09;10442814;28;20059;-79
2023/01/07 22:42:35;;;;;;;9.27;5.35;;;;;;;-14.38;74.48;102503.91;10417179;28;20804;-81
2023/01/07 22:47:41;;;;;;;10.52;5.53;;;;;;;-14.53;75.37;102491.50;10446531;28;20049;-80
2023/01/07 22:52:44;;;;;;;9.52;5.28;;;;;;;-14.64;74.45;102486.75;10451577;28;20044;-78
2023/01/07 22:57:46;;;;;;;8.38;4.70;;;;;;;-14.70;74.88;102484.41;10420551;28;20048;-78
2023/01/07 23:02:49;;;;;;;10.43;4.45;;;;;;;-14.85;74.35;102480.72;10437829;28;20140;-77
2023/01/07 23:08:17;;;;;;;10.20;5.35;;;;;;;-14.93;74.52;102459.13;10412173;28;20038;-76
2023/01/07 23:13:19;;;;;;;8.80;4.95;;;;;;;-15.26;73.73;102451.91;10427031;28;20520;-77
2023/01/07 23:18:22;;;;;;;8.73;5.15;;;;;;;-15.40;73.30;102462.22;10440749;28;20820;-76
2023/01/07 23:23:24;;;;;;;8.43;4.20;;;;;;;-15.54;73.97;102459.34;10446840;28;20037;-77
2023/01/07 23:28:31;;;;;;;5.85;3.60;;;;;;;-15.67;72.80;102451.16;10450127;28;20064;-78
2023/01/07 23:33:33;;;;;;;7.30;4.00;;;;;;;-15.80;72.81;102449.16;10422233;28;20046;-76
2023/01/07 23:38:36;;;;;;;7.28;3.63;;;;;;;-15.85;72.25;102451.97;10446063;28;20054;-77
2023/01/07 23:44:03;;;;;;;7.35;3.65;;;;;;;-15.84;71.93;102453.69;10378344;28;20046;-77